createdAt,value
2019-03-01T00:01:19.130Z,11.50
2019-03-01T00:03:54.887Z,11.37
2019-03-01T00:06:49.062Z,10.50
2019-03-01T00:09:55.210Z,11.93
2019-03-01T00:13:09.026Z,11.13
2019-03-01T00:16:07.208Z,9.60
2019-03-01T00:19:06.586Z,9.87
2019-03-01T00:22:12.982Z,11.13
2019-03-01T00:24:54.310Z,11.47
2019-03-01T00:27:44.089Z,12.03
2019-03-01T00:30:58.960Z,10.77
2019-03-01T00:34:15.136Z,13.20
2019-03-01T00:36:53.770Z,12.33
2019-03-01T00:40:06.875Z,13.20
2019-03-01T00:43:18.278Z,12.63
2019-03-01T00:45:48.766Z,10.50
2019-03-01T00:48:18.664Z,11.23
2019-03-01T00:50:47.926Z,11.03
2019-03-01T00:53:18.242Z,12.33
2019-03-01T00:55:47.500Z,12.10
2019-03-01T00:58:16.586Z,10.67
2019-03-01T01:00:48.223Z,10.47
2019-03-01T01:03:17.293Z,9.23
2019-03-01T01:05:46.858Z,10.77
2019-03-01T01:08:15.956Z,11.07
2019-03-01T01:10:45.637Z,11.20
2019-03-01T01:13:15.026Z,8.23
2019-03-01T01:15:44.408Z,10.83
2019-03-01T01:18:13.420Z,9.43
2019-03-01T01:20:42.406Z,10.50
2019-03-01T01:23:11.531Z,8.50
2019-03-01T01:25:40.894Z,9.00
2019-03-01T01:28:10.354Z,8.13
2019-03-01T01:30:39.430Z,8.90
2019-03-01T01:33:08.772Z,7.63
2019-03-01T01:35:38.390Z,8.23
2019-03-01T01:38:07.421Z,8.50
2019-03-01T01:40:36.445Z,7.50
2019-03-01T01:43:05.445Z,6.83
2019-03-01T01:45:35.398Z,6.80
2019-03-01T01:48:06.279Z,7.33
2019-03-01T01:50:39.706Z,8.57
2019-03-01T01:53:09.076Z,7.43
2019-03-01T01:55:38.433Z,6.60
2019-03-01T01:58:07.458Z,6.30
2019-03-01T02:00:37.415Z,7.00
2019-03-01T02:03:06.806Z,6.13
2019-03-01T02:05:36.141Z,5.27
2019-03-01T02:08:05.439Z,7.23
2019-03-01T02:10:35.395Z,6.80
2019-03-01T02:13:06.087Z,6.20
2019-03-01T02:15:35.859Z,5.67
2019-03-01T02:18:07.014Z,5.80
2019-03-01T02:20:36.390Z,7.50
2019-03-01T02:23:05.594Z,7.27
2019-03-01T02:25:34.506Z,7.03
2019-03-01T02:28:03.563Z,5.90
2019-03-01T02:30:33.225Z,5.73
2019-03-01T02:33:04.602Z,5.17
2019-03-01T02:35:34.380Z,5.57
2019-03-01T02:38:03.748Z,4.97
2019-03-01T02:40:36.523Z,5.60
2019-03-01T02:43:05.820Z,5.60
2019-03-01T02:45:35.059Z,5.20
2019-03-01T02:48:04.210Z,5.43
2019-03-01T02:50:33.892Z,5.43
2019-03-01T02:53:04.455Z,4.57
2019-03-01T02:55:33.768Z,5.70
2019-03-01T02:58:05.977Z,5.30
2019-03-01T03:00:37.698Z,5.23
2019-03-01T03:03:07.087Z,5.00
2019-03-01T03:05:49.082Z,4.67
2019-03-01T03:08:18.166Z,5.07
2019-03-01T03:10:47.476Z,4.83
2019-03-01T03:13:16.528Z,4.47
2019-03-01T03:15:47.270Z,4.80
2019-03-01T03:18:16.564Z,4.50
2019-03-01T03:20:45.626Z,4.37
2019-03-01T03:23:14.891Z,4.80
2019-03-01T03:25:44.536Z,4.10
2019-03-01T03:28:15.507Z,4.77
2019-03-01T03:30:44.503Z,4.40
2019-03-01T03:33:14.548Z,4.40
2019-03-01T03:35:43.631Z,4.23
2019-03-01T03:38:12.991Z,5.00
2019-03-01T03:40:42.589Z,4.53
2019-03-01T03:43:11.603Z,5.13
2019-03-01T03:45:41.964Z,4.40
2019-03-01T03:48:11.637Z,3.33
2019-03-01T03:50:41.042Z,4.87
2019-03-01T03:53:10.824Z,4.43
2019-03-01T03:55:39.915Z,3.57
2019-03-01T03:58:08.937Z,4.67
2019-03-01T04:00:39.048Z,3.53
2019-03-01T04:03:08.428Z,3.63
2019-03-01T04:05:37.848Z,3.37
2019-03-01T04:08:07.059Z,4.17
2019-03-01T04:10:38.224Z,3.47
2019-03-01T04:13:07.482Z,3.43
2019-03-01T04:15:37.562Z,4.00
2019-03-01T04:18:06.739Z,3.63
2019-03-01T04:20:36.039Z,4.30
2019-03-01T04:23:05.083Z,4.13
2019-03-01T04:25:34.488Z,3.97
2019-03-01T04:28:04.738Z,4.43
2019-03-01T04:30:33.831Z,3.47
2019-03-01T04:33:02.852Z,4.10
2019-03-01T04:35:32.402Z,3.77
2019-03-01T04:38:01.628Z,3.87
2019-03-01T04:40:30.956Z,4.30
2019-03-01T04:42:59.995Z,5.07
2019-03-01T04:45:29.987Z,3.97
2019-03-01T04:47:59.352Z,4.17
2019-03-01T04:50:30.460Z,4.07
2019-03-01T04:53:00.232Z,4.40
2019-03-01T04:55:32.241Z,3.80
2019-03-01T04:58:01.596Z,4.27
2019-03-01T05:00:31.142Z,3.97
2019-03-01T05:03:00.522Z,3.70
2019-03-01T05:05:29.642Z,4.20
2019-03-01T05:07:59.066Z,3.13
2019-03-01T05:10:28.347Z,3.63
2019-03-01T05:12:57.685Z,3.50
2019-03-01T05:15:27.046Z,3.97
2019-03-01T05:17:56.043Z,3.63
2019-03-01T05:20:25.370Z,3.03
2019-03-01T05:22:54.410Z,3.50
2019-03-01T05:25:23.662Z,4.10
2019-03-01T05:27:53.744Z,3.20
2019-03-01T05:30:23.118Z,3.03
2019-03-01T05:32:52.487Z,3.43
2019-03-01T05:35:22.171Z,3.40
2019-03-01T05:37:51.201Z,3.40
2019-03-01T05:40:20.513Z,3.67
2019-03-01T05:42:51.782Z,3.57
2019-03-01T05:45:22.296Z,3.23
2019-03-01T05:47:51.568Z,3.57
2019-03-01T05:50:20.930Z,4.43
2019-03-01T05:52:50.266Z,4.00
2019-03-01T05:55:19.572Z,3.17
2019-03-01T05:58:41.675Z,3.60
2019-03-01T06:01:23.935Z,4.13
2019-03-01T06:04:17.462Z,2.73
2019-03-01T06:07:26.910Z,3.20
2019-03-01T06:10:35.621Z,4.00
2019-03-01T06:13:33.843Z,2.80
2019-03-01T06:16:31.276Z,3.63
2019-03-01T06:19:43.435Z,3.50
2019-03-01T06:22:43.871Z,3.40
2019-03-01T06:25:59.535Z,3.63
2019-03-01T06:28:52.570Z,4.50
2019-03-01T06:32:01.023Z,4.00
2019-03-01T06:35:03.619Z,4.23
2019-03-01T06:38:09.209Z,4.43
2019-03-01T06:41:22.103Z,5.10
2019-03-01T06:44:24.790Z,5.50
2019-03-01T06:47:22.211Z,7.13
2019-03-01T06:50:06.348Z,4.97
2019-03-01T06:52:41.044Z,5.50
2019-03-01T06:55:16.705Z,5.57
2019-03-01T06:57:47.690Z,6.50
2019-03-01T07:00:18.988Z,6.63
2019-03-01T07:02:50.103Z,7.03
2019-03-01T07:05:19.474Z,7.17
2019-03-01T07:07:49.472Z,9.50
2019-03-01T07:10:18.743Z,5.57
2019-03-01T07:12:49.141Z,6.20
2019-03-01T07:15:18.905Z,4.90
2019-03-01T07:17:48.072Z,5.37
2019-03-01T07:20:17.151Z,5.00
2019-03-01T07:22:46.204Z,5.73
2019-03-01T07:25:17.877Z,4.30
2019-03-01T07:27:47.442Z,4.77
2019-03-01T07:30:17.118Z,4.53
2019-03-01T07:32:46.119Z,5.43
2019-03-01T07:35:15.077Z,6.10
2019-03-01T07:37:44.157Z,5.13
2019-03-01T07:40:16.911Z,5.23
2019-03-01T07:42:46.303Z,6.13
2019-03-01T07:45:15.929Z,6.70
2019-03-01T07:47:45.241Z,6.23
2019-03-01T07:50:15.621Z,6.50
2019-03-01T07:52:44.923Z,6.37
2019-03-01T07:55:16.692Z,5.73
2019-03-01T07:57:50.666Z,8.33
2019-03-01T08:00:19.724Z,5.97
2019-03-01T08:02:49.487Z,5.53
2019-03-01T08:05:19.155Z,4.90
2019-03-01T08:07:55.993Z,4.83
2019-03-01T08:10:22.492Z,5.73
2019-03-01T08:12:51.286Z,5.23
2019-03-01T08:15:20.631Z,4.30
2019-03-01T08:17:50.198Z,4.77
2019-03-01T08:20:19.470Z,4.17
2019-03-01T08:22:49.996Z,4.30
2019-03-01T08:25:23.487Z,3.60
2019-03-01T08:27:52.175Z,4.80
2019-03-01T08:30:21.365Z,3.47
2019-03-01T08:32:50.391Z,3.43
2019-03-01T08:35:20.245Z,3.37
2019-03-01T08:37:53.206Z,3.70
2019-03-01T08:40:20.782Z,3.97
2019-03-01T08:42:50.816Z,3.97
2019-03-01T08:45:19.930Z,4.10
2019-03-01T08:47:49.259Z,3.53
2019-03-01T08:50:18.488Z,4.73
2019-03-01T08:52:47.766Z,4.73
2019-03-01T08:55:17.814Z,3.33
2019-03-01T08:57:50.119Z,3.73
2019-03-01T09:00:23.161Z,4.27
2019-03-01T09:02:54.302Z,4.47
2019-03-01T09:05:23.648Z,3.33
2019-03-01T09:07:52.712Z,4.27
2019-03-01T09:10:24.331Z,4.30
2019-03-01T09:12:54.165Z,4.33
2019-03-01T09:15:25.565Z,4.10
2019-03-01T09:17:54.809Z,4.43
2019-03-01T09:20:24.605Z,4.00
2019-03-01T09:22:53.998Z,4.33
2019-03-01T09:25:23.550Z,5.03
2019-03-01T09:27:52.590Z,4.70
2019-03-01T09:30:23.676Z,4.67
2019-03-01T09:32:52.749Z,4.97
2019-03-01T09:35:44.693Z,5.87
2019-03-01T09:38:14.906Z,5.23
2019-03-01T09:40:44.140Z,5.57
2019-03-01T09:43:14.203Z,5.40
2019-03-01T09:45:45.762Z,5.97
2019-03-01T09:48:14.597Z,5.27
2019-03-01T09:50:44.190Z,5.97
2019-03-01T09:53:13.292Z,6.83
2019-03-01T09:55:42.686Z,5.77
2019-03-01T09:58:12.173Z,7.37
2019-03-01T10:00:43.132Z,6.07
2019-03-01T10:03:12.944Z,8.00
2019-03-01T10:05:42.137Z,6.20
2019-03-01T10:08:11.812Z,5.97
2019-03-01T10:10:41.162Z,6.90
2019-03-01T10:13:10.267Z,5.77
2019-03-01T10:15:39.938Z,6.03
2019-03-01T10:18:09.227Z,6.80
2019-03-01T10:20:38.802Z,6.23
2019-03-01T10:23:08.647Z,6.53
2019-03-01T10:25:38.578Z,5.63
2019-03-01T10:28:07.850Z,5.67
2019-03-01T10:30:36.899Z,4.73
2019-03-01T10:33:05.914Z,5.10
2019-03-01T10:35:35.294Z,5.43
2019-03-01T10:38:04.403Z,5.70
2019-03-01T10:40:33.774Z,4.90
2019-03-01T10:43:03.246Z,5.27
2019-03-01T10:45:33.862Z,5.50
2019-03-01T10:48:03.302Z,5.90
2019-03-01T10:50:32.655Z,6.00
2019-03-01T10:53:01.698Z,5.30
2019-03-01T10:55:30.871Z,4.83
2019-03-01T10:57:59.916Z,5.50
2019-03-01T11:00:29.542Z,5.23
2019-03-01T11:02:59.397Z,4.77
2019-03-01T11:05:29.179Z,4.40
2019-03-01T11:07:58.595Z,5.43
2019-03-01T11:10:32.906Z,5.07
2019-03-01T11:13:06.114Z,4.50
2019-03-01T11:15:35.448Z,4.83
2019-03-01T11:18:05.295Z,4.93
2019-03-01T11:20:37.167Z,5.53
2019-03-01T11:23:06.080Z,5.33
2019-03-01T11:25:37.863Z,5.93
2019-03-01T11:28:10.331Z,5.60
2019-03-01T11:30:39.306Z,6.47
2019-03-01T11:33:09.430Z,5.83
2019-03-01T11:35:39.740Z,5.63
2019-03-01T11:38:09.197Z,6.33
2019-03-01T11:40:39.998Z,5.33
2019-03-01T11:43:09.094Z,6.77
2019-03-01T11:45:38.773Z,7.43
2019-03-01T11:48:08.003Z,7.00
2019-03-01T11:50:37.935Z,7.50
2019-03-01T11:53:07.561Z,7.97
2019-03-01T11:55:39.380Z,9.60
2019-03-01T11:58:08.550Z,7.77
2019-03-01T12:00:38.163Z,9.13
2019-03-01T12:03:07.675Z,11.20
2019-03-01T12:05:36.912Z,9.77
2019-03-01T12:08:06.045Z,10.23
2019-03-01T12:10:36.772Z,9.07
2019-03-01T12:13:09.455Z,9.60
2019-03-01T12:15:38.903Z,10.33
2019-03-01T12:18:07.974Z,11.13
2019-03-01T12:20:37.762Z,10.80
2019-03-01T12:23:08.625Z,12.67
2019-03-01T12:25:37.623Z,15.10
2019-03-01T12:28:06.672Z,15.93
2019-03-01T12:30:36.377Z,17.47
2019-03-01T12:33:06.072Z,18.90
2019-03-01T12:35:35.539Z,20.73
2019-03-01T12:38:08.046Z,22.30
2019-03-01T12:40:37.699Z,21.43
2019-03-01T12:43:06.723Z,23.20
2019-03-01T12:45:36.357Z,24.37
2019-03-01T12:48:05.660Z,27.10
2019-03-01T12:50:36.271Z,25.47
2019-03-01T12:53:05.563Z,24.53
2019-03-01T12:55:34.907Z,27.40
2019-03-01T12:58:05.983Z,25.60
2019-03-01T13:00:36.930Z,27.07
2019-03-01T13:03:08.948Z,27.73
2019-03-01T13:05:37.366Z,27.33
2019-03-01T13:08:06.874Z,29.77
2019-03-01T13:10:36.729Z,27.13
2019-03-01T13:13:11.210Z,30.07
2019-03-01T13:15:41.945Z,27.30
2019-03-01T13:18:15.820Z,28.67
2019-03-01T13:20:42.338Z,30.00
2019-03-01T13:23:17.728Z,31.50
2019-03-01T13:25:47.049Z,35.67
2019-03-01T13:28:18.706Z,35.80
2019-03-01T13:30:50.600Z,39.90
2019-03-01T13:33:22.751Z,42.83
2019-03-01T13:35:51.901Z,40.43
2019-03-01T13:38:21.413Z,39.13
2019-03-01T13:40:51.025Z,43.13
2019-03-01T13:43:20.656Z,42.53
2019-03-01T13:45:52.746Z,44.23
2019-03-01T13:48:22.344Z,42.10
2019-03-01T13:50:52.497Z,40.43
2019-03-01T13:53:25.921Z,43.63
2019-03-01T13:55:56.394Z,42.70
2019-03-01T13:58:27.657Z,46.33
2019-03-01T14:00:57.224Z,41.50
2019-03-01T14:03:28.661Z,42.77
2019-03-01T14:05:58.351Z,43.40
2019-03-01T14:08:27.553Z,39.97
2019-03-01T14:10:56.892Z,39.53
2019-03-01T14:13:29.330Z,44.07
2019-03-01T14:15:58.721Z,42.60
2019-03-01T14:18:27.779Z,41.13
2019-03-01T14:20:58.219Z,39.87
2019-03-01T14:23:28.635Z,36.90
2019-03-01T14:25:58.399Z,37.87
2019-03-01T14:28:29.195Z,36.77
2019-03-01T14:30:58.483Z,35.60
2019-03-01T14:33:33.198Z,38.33
2019-03-01T14:36:02.716Z,36.57
2019-03-01T14:38:33.978Z,36.60
2019-03-01T14:41:03.182Z,35.70
2019-03-01T14:43:32.693Z,33.07
2019-03-01T14:46:01.873Z,35.13
2019-03-01T14:48:32.590Z,35.40
2019-03-01T14:51:02.051Z,35.07
2019-03-01T14:53:34.705Z,34.23
2019-03-01T14:56:10.890Z,32.83
2019-03-01T14:58:47.863Z,31.87
2019-03-01T15:01:47.930Z,31.07
2019-03-01T15:04:18.054Z,33.23
2019-03-01T15:06:51.366Z,32.03
2019-03-01T15:09:21.783Z,33.50
2019-03-01T15:11:52.582Z,37.27
2019-03-01T15:14:22.007Z,34.83
2019-03-01T15:16:54.419Z,30.80
2019-03-01T15:19:23.789Z,35.47
2019-03-01T15:21:53.135Z,33.00
2019-03-01T15:24:22.559Z,32.27
2019-03-01T15:26:51.594Z,31.97
2019-03-01T15:29:21.874Z,34.13
2019-03-01T15:31:54.520Z,30.50
2019-03-01T15:34:25.213Z,36.53
2019-03-01T15:36:59.231Z,31.40
2019-03-01T15:39:28.672Z,34.93
2019-03-01T15:42:01.025Z,34.87
2019-03-01T15:44:30.929Z,32.73
2019-03-01T15:47:00.319Z,32.10
2019-03-01T15:49:29.802Z,34.33
2019-03-01T15:52:00.947Z,32.93
2019-03-01T15:54:32.528Z,35.33
2019-03-01T15:57:02.622Z,34.03
2019-03-01T15:59:32.112Z,39.80
2019-03-01T16:02:02.982Z,37.40
2019-03-01T16:04:37.617Z,37.93
2019-03-01T16:07:07.538Z,38.37
2019-03-01T16:09:36.827Z,36.63
2019-03-01T16:12:05.890Z,43.60
2019-03-01T16:14:35.147Z,38.57
2019-03-01T16:17:06.603Z,35.27
2019-03-01T16:19:37.661Z,41.70
2019-03-01T16:22:09.081Z,38.53
2019-03-01T16:24:41.620Z,40.60
2019-03-01T16:27:15.237Z,39.10
2019-03-01T16:29:46.487Z,36.20
2019-03-01T16:32:15.545Z,37.97
2019-03-01T16:34:46.114Z,32.57
2019-03-01T16:37:16.467Z,36.73
2019-03-01T16:39:46.230Z,35.40
2019-03-01T16:42:18.839Z,30.67
2019-03-01T16:44:50.811Z,29.97
2019-03-01T16:47:23.277Z,30.33
2019-03-01T16:49:54.471Z,33.60
2019-03-01T16:52:26.464Z,29.93
2019-03-01T16:54:58.575Z,27.10
2019-03-01T16:57:30.609Z,30.13
2019-03-01T17:00:00.289Z,32.40
2019-03-01T17:02:30.594Z,29.70
2019-03-01T17:05:03.854Z,33.70
2019-03-01T17:07:32.737Z,29.87
2019-03-01T17:10:10.044Z,32.70
2019-03-01T17:12:39.438Z,33.03
2019-03-01T17:15:15.599Z,35.50
2019-03-01T17:17:46.753Z,37.10
2019-03-01T17:20:16.210Z,33.93
2019-03-01T17:22:47.368Z,33.70
2019-03-01T17:25:19.494Z,36.00
2019-03-01T17:27:55.049Z,38.43
2019-03-01T17:30:26.562Z,32.40
2019-03-01T17:32:55.975Z,33.30
2019-03-01T17:35:26.484Z,38.87
2019-03-01T17:37:55.729Z,29.30
2019-03-01T17:40:25.047Z,33.47
2019-03-01T17:42:56.612Z,30.73
2019-03-01T17:45:28.662Z,29.87
2019-03-01T17:47:57.681Z,30.77
2019-03-01T17:50:26.958Z,30.67
2019-03-01T17:52:56.529Z,30.70
2019-03-01T17:55:26.829Z,31.20
2019-03-01T17:57:56.240Z,32.10
2019-03-01T18:00:31.209Z,28.53
2019-03-01T18:03:00.244Z,28.33
2019-03-01T18:05:29.594Z,28.70
2019-03-01T18:08:03.361Z,30.73
2019-03-01T18:10:32.145Z,30.37
2019-03-01T18:13:01.656Z,25.77
2019-03-01T18:15:30.861Z,27.83
2019-03-01T18:18:00.294Z,31.63
2019-03-01T18:20:30.465Z,27.23
2019-03-01T18:23:02.183Z,24.73
2019-03-01T18:25:32.915Z,24.47
2019-03-01T18:28:03.705Z,24.50
2019-03-01T18:30:34.524Z,24.53
2019-03-01T18:33:04.075Z,27.83
2019-03-01T18:35:33.121Z,24.37
2019-03-01T18:38:02.918Z,23.87
2019-03-01T18:40:32.516Z,26.63
2019-03-01T18:43:02.119Z,25.53
2019-03-01T18:45:43.158Z,21.27
2019-03-01T18:48:12.326Z,23.03
2019-03-01T18:50:41.487Z,21.20
2019-03-01T18:53:11.468Z,19.03
2019-03-01T18:55:41.755Z,18.87
2019-03-01T18:58:18.037Z,19.80
2019-03-01T19:00:47.396Z,17.70
2019-03-01T19:03:16.802Z,19.80
2019-03-01T19:05:46.500Z,22.43
2019-03-01T19:08:16.642Z,20.00
2019-03-01T19:10:53.993Z,19.37
2019-03-01T19:13:24.521Z,20.13
2019-03-01T19:15:54.863Z,19.53
2019-03-01T19:18:35.394Z,20.20
2019-03-01T19:21:04.793Z,20.17
2019-03-01T19:23:34.134Z,22.83
2019-03-01T19:26:03.435Z,22.03
2019-03-01T19:28:34.240Z,24.93
2019-03-01T19:31:07.461Z,23.73
2019-03-01T19:33:41.451Z,26.63
2019-03-01T19:36:10.093Z,25.57
2019-03-01T19:38:39.423Z,22.37
2019-03-01T19:41:09.187Z,22.70
2019-03-01T19:43:45.686Z,23.10
2019-03-01T19:46:16.710Z,25.10
2019-03-01T19:48:46.599Z,25.30
2019-03-01T19:51:16.855Z,23.50
2019-03-01T19:53:46.553Z,24.70
2019-03-01T19:56:18.943Z,24.57
2019-03-01T19:58:48.927Z,24.53
2019-03-01T20:01:18.692Z,23.67
2019-03-01T20:03:48.211Z,24.43
2019-03-01T20:06:18.483Z,26.17
2019-03-01T20:08:48.552Z,26.90
2019-03-01T20:11:23.355Z,24.93
2019-03-01T20:13:54.640Z,24.07
2019-03-01T20:16:23.887Z,23.27
2019-03-01T20:18:53.674Z,24.07
2019-03-01T20:21:23.796Z,24.27
2019-03-01T20:23:54.581Z,23.23
2019-03-01T20:26:29.432Z,24.17
2019-03-01T20:28:59.681Z,24.77
2019-03-01T20:31:29.092Z,23.80
2019-03-01T20:34:01.810Z,25.00
2019-03-01T20:36:33.086Z,25.37
2019-03-01T20:39:02.349Z,25.77
2019-03-01T20:41:31.583Z,24.13
2019-03-01T20:44:01.179Z,26.47
2019-03-01T20:46:34.721Z,27.93
2019-03-01T20:49:04.939Z,29.33
2019-03-01T20:51:35.313Z,26.73
2019-03-01T20:54:04.865Z,28.77
2019-03-01T20:56:34.785Z,27.00
2019-03-01T20:59:04.792Z,26.33
2019-03-01T21:01:37.237Z,28.17
2019-03-01T21:04:05.956Z,29.37
2019-03-01T21:06:37.402Z,30.13
2019-03-01T21:09:08.610Z,29.27
2019-03-01T21:11:39.047Z,29.30
2019-03-01T21:14:09.885Z,27.17
2019-03-01T21:16:44.830Z,27.37
2019-03-01T21:19:13.680Z,29.80
2019-03-01T21:21:52.945Z,28.50
2019-03-01T21:24:26.518Z,26.67
2019-03-01T21:26:54.861Z,25.50
2019-03-01T21:29:25.240Z,26.53
2019-03-01T21:31:57.503Z,26.07
2019-03-01T21:34:28.465Z,25.63
2019-03-01T21:36:59.153Z,29.13
2019-03-01T21:39:29.352Z,27.47
2019-03-01T21:41:58.846Z,27.93
2019-03-01T21:44:30.959Z,28.43
2019-03-01T21:47:00.172Z,27.50
2019-03-01T21:49:36.052Z,29.20
2019-03-01T21:52:05.465Z,28.30
2019-03-01T21:54:35.302Z,27.50
2019-03-01T21:57:04.655Z,28.13
2019-03-01T21:59:37.545Z,29.17
2019-03-01T22:02:13.708Z,28.33
2019-03-01T22:04:44.754Z,27.17
2019-03-01T22:07:15.779Z,28.47
2019-03-01T22:09:46.067Z,31.87
2019-03-01T22:12:33.290Z,27.63
2019-03-01T22:15:03.671Z,30.33
2019-03-01T22:17:34.149Z,28.47
2019-03-01T22:20:13.343Z,31.07
2019-03-01T22:22:42.635Z,27.00
2019-03-01T22:25:16.225Z,28.83
2019-03-01T22:27:48.960Z,30.13
2019-03-01T22:30:23.892Z,30.53
2019-03-01T22:33:06.527Z,34.00
2019-03-01T22:35:36.204Z,30.63
2019-03-01T22:38:09.554Z,31.73
2019-03-01T22:40:40.905Z,29.53
2019-03-01T22:43:26.103Z,30.83
2019-03-01T22:46:02.816Z,29.17
2019-03-01T22:48:34.985Z,30.10
